Time;durP1;ratioP1;P1;durP2;ratioP2;P2;SDS_P1;SDS_P2;PMS_P1;PMS_P2;Temp;Humidity;BMP_temperature;BMP_pressure;BME280_temperature;BME280_humidity;BME280_pressure;Samples;Min_cycle;Max_cycle;Signal;HPM_P1;HPM_P2
2023/03/01 00:12:07;;;;;;;17.27;13.93;;;-0.50;99.90;;;;;;5975422;23;20026;-81
2023/03/01 00:15:35;;;;;;;17.27;14.80;;;-0.10;99.90;;;;;;6060701;23;20089;-81
2023/03/01 00:19:32;;;;;;;19.17;15.88;;;-1.00;99.90;;;;;;6019496;23;20573;-81
2023/03/01 00:27:18;;;;;;;20.45;16.27;;;-0.30;99.90;;;;;;6030849;23;20018;-81
2023/03/01 00:42:45;;;;;;;17.33;13.70;;;0.30;99.90;;;;;;5950992;24;20107;-81
2023/03/01 00:46:22;;;;;;;17.92;14.13;;;-0.50;99.90;;;;;;6007983;23;20034;-81
2023/03/01 00:49:53;;;;;;;16.30;14.60;;;-0.60;99.90;;;;;;5982364;23;20060;-80
2023/03/01 00:53:47;;;;;;;15.00;12.82;;;-0.50;99.90;;;;;;5941398;24;20031;-81
2023/03/01 00:57:34;;;;;;;15.65;13.88;;;-0.70;99.90;;;;;;6002831;23;20020;-81
2023/03/01 01:01:07;;;;;;;18.50;15.23;;;-1.00;99.90;;;;;;5997170;23;20019;-80
2023/03/01 01:04:51;;;;;;;16.50;13.65;;;-1.00;99.90;;;;;;6066184;23;20058;-80
2023/03/01 01:08:26;;;;;;;17.48;15.02;;;-0.80;99.90;;;;;;6180325;23;20087;-80
2023/03/01 01:15:26;;;;;;;17.38;14.93;;;-1.10;99.90;;;;;;6094299;23;20351;-80
2023/03/01 01:19:04;;;;;;;17.40;14.43;;;-1.20;99.90;;;;;;6085535;23;20078;-80
2023/03/01 01:22:53;;;;;;;22.20;16.63;;;-1.20;99.90;;;;;;6094848;23;20113;-80
2023/03/01 01:26:28;;;;;;;19.38;16.35;;;-1.20;99.90;;;;;;6089910;23;20046;-80
2023/03/01 01:30:04;;;;;;;166.05;18.85;;;-0.70;99.90;;;;;;6110268;23;20158;-80
2023/03/01 01:33:41;;;;;;;279.08;24.15;;;-1.10;99.90;;;;;;6185658;23;20065;-80
2023/03/01 01:36:44;;;;;;;394.55;31.98;;;-0.40;99.90;;;;;;6155277;23;20021;-81
2023/03/01 01:40:06;;;;;;;411.25;37.10;;;-1.40;99.90;;;;;;6185206;23;20418;-81
2023/03/01 01:43:41;;;;;;;203.35;26.52;;;-0.90;99.90;;;;;;6181827;23;20024;-80
2023/03/01 01:46:47;;;;;;;195.75;24.42;;;-1.10;99.90;;;;;;6104194;23;20092;-81
2023/03/01 01:50:24;;;;;;;150.70;24.33;;;-0.90;99.90;;;;;;6184962;23;20048;-80
2023/03/01 01:54:04;;;;;;;125.68;22.35;;;-0.50;99.90;;;;;;6131379;23;20063;-81
2023/03/01 01:57:26;;;;;;;212.00;28.30;;;-0.90;99.90;;;;;;6074988;23;20018;-80
2023/03/01 02:00:39;;;;;;;176.02;29.02;;;-1.50;99.90;;;;;;6126783;23;20357;-80
2023/03/01 02:03:52;;;;;;;223.57;26.92;;;-1.10;99.90;;;;;;6152167;23;20025;-81
2023/03/01 02:07:22;;;;;;;254.95;31.60;;;-1.00;99.90;;;;;;6185017;23;20071;-81
2023/03/01 02:10:34;;;;;;;295.67;27.15;;;-1.10;99.90;;;;;;6141265;23;20017;-81
2023/03/01 02:13:40;;;;;;;508.52;52.08;;;-1.70;99.90;;;;;;6184473;23;20236;-80
2023/03/01 02:16:44;;;;;;;222.55;25.17;;;-1.50;99.90;;;;;;6178630;23;20017;-81
2023/03/01 02:20:21;;;;;;;96.13;18.65;;;-0.80;99.90;;;;;;6184502;23;20468;-80
2023/03/01 02:23:06;;;;;;;47.60;17.48;;;-1.60;99.90;;;;;;6143189;23;20532;-80
2023/03/01 02:26:02;;;;;;;60.88;18.73;;;-0.80;99.90;;;;;;6136249;23;20067;-81
2023/03/01 02:28:45;;;;;;;42.60;17.55;;;-0.70;99.90;;;;;;6134555;23;20646;-81
2023/03/01 02:34:18;;;;;;;94.93;21.73;;;-1.00;99.90;;;;;;6183902;23;20024;-80
2023/03/01 02:37:04;;;;;;;37.95;16.52;;;-1.30;99.90;;;;;;6157678;23;20084;-80
2023/03/01 02:39:52;;;;;;;24.65;14.45;;;-1.40;99.90;;;;;;6139108;23;20016;-81
2023/03/01 02:42:55;;;;;;;18.65;15.13;;;-0.80;99.90;;;;;;6122615;23;20047;-81
2023/03/01 02:45:26;;;;;;;15.98;14.48;;;-1.80;99.90;;;;;;6091389;23;20349;-80
2023/03/01 02:48:01;;;;;;;15.90;14.30;;;-1.50;99.90;;;;;;6184452;23;20357;-81
2023/03/01 02:50:30;;;;;;;15.75;14.25;;;-0.50;99.90;;;;;;6134429;23;20326;-80
2023/03/01 02:53:11;;;;;;;18.58;16.67;;;-1.20;99.90;;;;;;6132883;23;20036;-80
2023/03/01 02:55:41;;;;;;;18.27;16.48;;;-1.40;99.90;;;;;;6133353;23;20016;-80
2023/03/01 02:58:08;;;;;;;16.77;15.07;;;-0.50;99.90;;;;;;6132817;23;20013;-80
2023/03/01 03:00:46;;;;;;;16.13;14.45;;;-1.00;99.90;;;;;;6158638;23;20044;-80
2023/03/01 03:03:19;;;;;;;16.15;14.45;;;-1.30;99.90;;;;;;6132786;23;20021;-80
2023/03/01 03:05:49;;;;;;;14.75;13.27;;;-1.00;99.90;;;;;;6133031;23;20371;-80
2023/03/01 03:08:23;;;;;;;15.35;12.57;;;-1.40;99.90;;;;;;6132267;23;20017;-80
2023/03/01 03:11:08;;;;;;;19.70;14.10;;;-1.30;99.90;;;;;;6132632;23;20052;-80
2023/03/01 03:13:36;;;;;;;18.15;13.13;;;-1.90;99.90;;;;;;6132219;23;20417;-81
2023/03/01 03:16:10;;;;;;;23.05;15.27;;;-1.10;99.90;;;;;;6108484;23;20396;-80
2023/03/01 03:18:38;;;;;;;25.60;14.77;;;-1.50;99.90;;;;;;6132519;23;20013;-80
2023/03/01 03:21:12;;;;;;;19.08;15.00;;;-1.40;99.90;;;;;;6132592;23;20012;-80
2023/03/01 03:23:39;;;;;;;19.67;14.80;;;-1.60;99.90;;;;;;6131975;23;20013;-80
2023/03/01 03:26:14;;;;;;;25.77;18.23;;;-1.10;99.90;;;;;;6132018;23;20511;-80
2023/03/01 03:28:44;;;;;;;19.42;17.48;;;-1.00;99.90;;;;;;6131803;23;20096;-80
2023/03/01 03:31:17;;;;;;;17.70;15.98;;;-2.10;99.90;;;;;;6131999;23;20021;-80
2023/03/01 03:33:47;;;;;;;19.33;17.33;;;-3.00;99.90;;;;;;6156604;23;20088;-80
2023/03/01 03:36:23;;;;;;;14.98;13.48;;;-2.10;99.90;;;;;;6131791;23;20013;-80
2023/03/01 03:38:50;;;;;;;;;;;-1.70;99.90;;;;;;6132586;23;20063;-80
2023/03/01 03:41:18;;;;;;;13.23;11.93;;;-0.80;99.90;;;;;;6132484;23;19912;-80
2023/03/01 03:43:45;;;;;;;15.00;13.48;;;-1.80;99.90;;;;;;6132291;23;20013;-81
2023/03/01 03:46:16;;;;;;;16.42;14.73;;;-1.90;99.90;;;;;;6158157;23;20377;-80
2023/03/01 03:48:49;;;;;;;20.52;18.40;;;-1.90;99.90;;;;;;6132439;23;20343;-80
2023/03/01 03:51:18;;;;;;;17.60;15.88;;;-2.00;99.90;;;;;;6132295;23;20017;-80
2023/03/01 03:53:46;;;;;;;14.95;13.45;;;-2.60;99.90;;;;;;6132057;23;20096;-80
2023/03/01 03:56:14;;;;;;;14.10;12.70;;;-1.90;99.90;;;;;;6132883;23;20013;-81
2023/03/01 03:58:42;;;;;;;13.07;11.77;;;-2.20;99.90;;;;;;6130872;23;20028;-81
2023/03/01 04:01:16;;;;;;;12.48;11.27;;;-1.80;99.90;;;;;;6156884;23;20009;-80
2023/03/01 04:03:46;;;;;;;11.68;10.60;;;-2.00;99.90;;;;;;6132411;23;20024;-80
2023/03/01 04:06:14;;;;;;;11.10;10.10;;;-1.90;99.90;;;;;;6108467;23;20032;-80
2023/03/01 04:08:46;;;;;;;10.65;9.65;;;-1.40;99.90;;;;;;6157218;23;20118;-81
2023/03/01 04:11:38;;;;;;;10.57;9.57;;;-1.40;99.90;;;;;;6132251;23;20151;-80
2023/03/01 04:14:08;;;;;;;11.73;10.65;;;-1.80;99.90;;;;;;6132561;23;20017;-80
2023/03/01 04:16:41;;;;;;;12.35;11.20;;;-2.10;99.90;;;;;;6132317;23;20009;-81
2023/03/01 04:19:22;;;;;;;;;;;;;;;;;;;;;
2023/03/01 04:21:53;;;;;;;11.88;10.38;;;-1.00;99.90;;;;;;6156435;23;20075;-80
2023/03/01 04:27:25;;;;;;;11.40;10.30;;;-1.60;99.90;;;;;;6156352;23;20031;-80
2023/03/01 04:30:01;;;;;;;10.30;9.40;;;-2.10;99.90;;;;;;6130026;23;20017;-80
2023/03/01 04:32:30;;;;;;;;;;;-1.70;99.90;;;;;;6109789;23;20021;-80
2023/03/01 04:35:06;;;;;;;8.25;7.45;;;-1.90;99.90;;;;;;6131937;23;19916;-80
2023/03/01 04:37:42;;;;;;;9.88;8.98;;;-1.80;99.90;;;;;;6131251;23;20063;-79
2023/03/01 04:40:37;;;;;;;;;;;;;;;;;;;;;
2023/03/01 04:43:09;;;;;;;9.25;8.45;;;-1.80;99.90;;;;;;6156148;23;20044;-80
2023/03/01 04:45:44;;;;;;;8.52;7.72;;;-1.90;99.90;;;;;;6132481;23;20020;-80
2023/03/01 04:48:23;;;;;;;11.27;10.18;;;-2.50;99.90;;;;;;6132070;23;20324;-80
2023/03/01 04:51:19;;;;;;;25.95;14.68;;;-2.20;99.90;;;;;;6131337;23;20017;-80
2023/03/01 04:53:52;;;;;;;22.95;20.15;;;-2.20;99.90;;;;;;6131164;23;20350;-80
2023/03/01 04:56:31;;;;;;;17.25;15.55;;;-2.40;99.90;;;;;;6132000;23;20095;-81
2023/03/01 04:59:14;;;;;;;16.85;14.65;;;-2.30;99.90;;;;;;6131291;23;20032;-80
2023/03/01 05:02:00;;;;;;;13.05;11.43;;;-2.40;99.90;;;;;;6132038;23;20047;-80
2023/03/01 05:04:40;;;;;;;17.60;15.70;;;-2.10;99.90;;;;;;6131329;23;20021;-80
2023/03/01 05:07:08;;;;;;;14.18;12.77;;;-2.00;99.90;;;;;;6131265;23;20017;-80
2023/03/01 05:09:36;;;;;;;12.73;11.43;;;-2.10;99.90;;;;;;6131795;23;20071;-80
2023/03/01 05:12:16;;;;;;;11.88;10.70;;;-2.50;99.90;;;;;;6107872;23;20152;-80
2023/03/01 05:14:53;;;;;;;10.70;9.65;;;-2.50;99.90;;;;;;6131485;23;20024;-80
2023/03/01 05:17:21;;;;;;;9.85;8.70;;;-2.90;99.90;;;;;;6109018;23;20045;-80
2023/03/01 05:19:52;;;;;;;10.90;9.80;;;-2.80;99.90;;;;;;6130722;23;20071;-80
2023/03/01 05:22:22;;;;;;;11.07;9.98;;;-2.30;99.90;;;;;;6132213;23;20350;-80
2023/03/01 05:24:50;;;;;;;11.48;10.38;;;-2.90;99.90;;;;;;6131165;23;20017;-80
2023/03/01 05:27:21;;;;;;;9.40;8.50;;;-2.00;99.90;;;;;;6156560;23;20024;-79
2023/03/01 05:29:49;;;;;;;10.38;9.27;;;-3.10;99.90;;;;;;6132014;23;20052;-80
2023/03/01 05:32:20;;;;;;;10.05;9.05;;;-3.20;99.90;;;;;;6131291;23;20085;-81
2023/03/01 05:34:52;;;;;;;10.02;9.13;;;-2.50;99.90;;;;;;6131927;23;20513;-80
2023/03/01 05:37:26;;;;;;;10.10;9.10;;;-3.20;99.90;;;;;;6133472;23;20028;-80
2023/03/01 05:39:56;;;;;;;10.70;9.70;;;-2.50;99.90;;;;;;6132981;23;20092;-81
2023/03/01 05:42:24;;;;;;;10.77;9.75;;;-2.40;99.90;;;;;;6157756;23;20077;-81
2023/03/01 05:44:51;;;;;;;10.32;9.32;;;-2.10;99.90;;;;;;6133502;23;20021;-80
2023/03/01 05:47:35;;;;;;;;;;;;;;;;;;;;;
2023/03/01 05:50:07;;;;;;;11.23;10.13;;;-2.50;99.90;;;;;;6157954;23;20040;-80
2023/03/01 05:52:37;;;;;;;10.05;9.05;;;-2.70;99.90;;;;;;6133522;23;20472;-81
2023/03/01 05:55:07;;;;;;;13.05;9.75;;;-2.30;99.90;;;;;;6133604;23;20060;-81
2023/03/01 05:57:40;;;;;;;11.07;9.98;;;-2.80;99.90;;;;;;6158668;23;20024;-80
2023/03/01 06:00:12;;;;;;;11.40;9.88;;;-2.80;99.90;;;;;;6133915;23;20020;-80
2023/03/01 06:02:48;;;;;;;10.10;9.20;;;-2.20;99.90;;;;;;6133314;23;20013;-80
2023/03/01 06:05:18;;;;;;;12.18;10.98;;;-2.80;99.90;;;;;;6133255;23;20017;-80
2023/03/01 06:07:50;;;;;;;12.20;11.00;;;-2.70;99.90;;;;;;6133492;23;20021;-80
2023/03/01 06:10:19;;;;;;;14.27;10.75;;;-2.50;99.90;;;;;;6133208;23;20100;-80
2023/03/01 06:12:49;;;;;;;11.00;10.00;;;-2.70;99.90;;;;;;6133243;23;20017;-80
2023/03/01 06:15:20;;;;;;;10.05;9.15;;;-2.80;99.90;;;;;;6133398;23;20013;-81
2023/03/01 06:17:51;;;;;;;11.18;10.10;;;-2.60;99.90;;;;;;6109551;23;20080;-80
2023/03/01 06:20:26;;;;;;;10.85;9.93;;;-2.60;99.90;;;;;;6132717;23;20017;-80
2023/03/01 06:22:56;;;;;;;11.57;10.48;;;-3.60;99.90;;;;;;6132988;23;20027;-81
2023/03/01 06:25:30;;;;;;;10.60;9.52;;;-2.80;99.90;;;;;;6133424;23;20017;-81
2023/03/01 06:27:58;;;;;;;10.65;9.63;;;-3.50;99.90;;;;;;6133215;23;20028;-80
2023/03/01 06:30:32;;;;;;;11.52;9.85;;;-2.90;99.90;;;;;;6133197;23;20017;-80
2023/03/01 06:33:01;;;;;;;10.95;9.75;;;-2.60;99.90;;;;;;6132420;23;20017;-80
2023/03/01 06:35:29;;;;;;;10.63;9.63;;;-2.80;99.90;;;;;;6133367;23;20454;-81
2023/03/01 06:37:57;;;;;;;11.82;10.73;;;-2.00;99.90;;;;;;6132800;23;20024;-80
2023/03/01 06:40:25;;;;;;;10.85;9.80;;;-2.80;99.90;;;;;;6129837;23;20036;-80
2023/03/01 06:43:02;;;;;;;10.93;9.93;;;-2.70;99.90;;;;;;6134839;23;20132;-80
2023/03/01 06:45:30;;;;;;;12.93;10.20;;;-3.00;99.90;;;;;;6133263;23;20021;-80
2023/03/01 06:48:23;;;;;;;10.55;9.55;;;-2.40;99.90;;;;;;6132561;23;20457;-80
2023/03/01 06:50:56;;;;;;;11.70;10.63;;;-2.40;99.90;;;;;;6132669;23;20397;-81
2023/03/01 06:53:35;;;;;;;12.85;11.45;;;-1.80;99.90;;;;;;6133380;23;20021;-80
2023/03/01 06:56:08;;;;;;;13.13;11.35;;;-2.00;99.90;;;;;;6132745;23;20020;-81
2023/03/01 06:58:37;;;;;;;13.60;11.80;;;-1.80;99.90;;;;;;6132088;23;20014;-81
2023/03/01 07:01:11;;;;;;;13.20;11.48;;;-2.00;99.90;;;;;;6128506;23;20088;-81
2023/03/01 07:03:45;;;;;;;12.85;10.30;;;-2.60;99.90;;;;;;6111342;23;20017;-80
2023/03/01 07:06:15;;;;;;;11.82;10.63;;;-0.90;99.90;;;;;;6133255;23;20072;-82
2023/03/01 07:08:43;;;;;;;10.60;9.60;;;-1.00;99.90;;;;;;6133088;23;20051;-80
2023/03/01 07:11:11;;;;;;;12.32;10.75;;;-1.10;99.90;;;;;;6107960;23;20021;-80
2023/03/01 07:13:41;;;;;;;11.63;10.43;;;-1.40;99.90;;;;;;6132357;23;20462;-80
2023/03/01 07:16:09;;;;;;;11.40;10.30;;;-1.30;99.90;;;;;;6132660;23;20020;-80
2023/03/01 07:18:39;;;;;;;11.10;10.00;;;-0.60;99.90;;;;;;6108505;23;20013;-80
2023/03/01 07:21:12;;;;;;;10.50;9.38;;;-1.10;99.90;;;;;;6132103;23;20017;-80
2023/03/01 07:23:40;;;;;;;11.88;10.48;;;-0.90;99.90;;;;;;6132908;23;20024;-81
2023/03/01 07:26:08;;;;;;;10.90;9.13;;;-1.10;99.90;;;;;;6132827;23;20021;-81
2023/03/01 07:28:42;;;;;;;11.32;10.15;;;-1.40;99.90;;;;;;6158127;23;20013;-80
2023/03/01 07:31:12;;;;;;;15.40;10.30;;;-0.70;99.90;;;;;;6132880;23;20078;-80
2023/03/01 07:33:40;;;;;;;9.23;8.32;;;-0.70;99.90;;;;;;6132225;23;20071;-81
2023/03/01 07:36:09;;;;;;;13.13;9.07;;;-0.90;99.90;;;;;;6132356;23;20896;-80
2023/03/01 07:38:45;;;;;;;12.43;10.38;;;-0.60;99.90;;;;;;6133009;23;20009;-81
2023/03/01 07:41:14;;;;;;;12.68;11.35;;;0.00;99.90;;;;;;6131708;23;20178;-80
2023/03/01 07:43:44;;;;;;;10.88;9.77;;;-0.30;99.90;;;;;;6131887;23;20445;-80
2023/03/01 07:46:12;;;;;;;10.05;9.05;;;-0.70;99.90;;;;;;6132449;23;20703;-80
2023/03/01 07:48:39;;;;;;;12.90;11.60;;;0.20;99.90;;;;;;6132134;23;20040;-80
2023/03/01 07:51:07;;;;;;;13.25;10.75;;;-0.10;99.90;;;;;;6131948;23;20075;-80
2023/03/01 07:53:34;;;;;;;15.13;13.63;;;0.00;99.90;;;;;;6132037;23;20017;-80
2023/03/01 07:56:08;;;;;;;16.92;14.98;;;0.30;99.90;;;;;;6132228;23;20017;-80
2023/03/01 07:58:35;;;;;;;17.30;15.57;;;0.20;99.90;;;;;;6131766;23;20021;-80
2023/03/01 08:01:02;;;;;;;18.85;16.40;;;0.60;99.90;;;;;;6132313;23;20017;-80
2023/03/01 08:03:28;;;;;;;19.75;17.30;;;0.50;99.90;;;;;;6132171;23;20025;-81
2023/03/01 08:05:54;;;;;;;16.88;15.07;;;0.30;99.90;;;;;;6132204;23;20017;-81
2023/03/01 08:08:20;;;;;;;16.50;14.57;;;0.70;99.90;;;;;;6132502;23;20027;-81
2023/03/01 08:10:46;;;;;;;16.75;15.13;;;1.00;99.90;;;;;;6132104;23;20017;-80
2023/03/01 08:13:12;;;;;;;17.05;15.25;;;0.70;99.90;;;;;;6156316;23;20092;-80
2023/03/01 08:15:38;;;;;;;16.40;14.80;;;1.30;99.90;;;;;;6132219;23;20086;-80
2023/03/01 08:18:04;;;;;;;21.70;15.35;;;0.90;99.90;;;;;;6131781;23;20488;-80
2023/03/01 08:20:30;;;;;;;20.88;17.27;;;1.30;99.90;;;;;;6131845;23;20017;-80
2023/03/01 08:22:57;;;;;;;22.55;17.83;;;1.10;99.90;;;;;;6131228;23;20466;-80
2023/03/01 08:25:23;;;;;;;32.90;17.05;;;2.20;99.90;;;;;;6131226;23;20040;-80
2023/03/01 08:27:52;;;;;;;19.90;17.63;;;1.30;99.90;;;;;;6132310;23;20013;-80
2023/03/01 08:30:18;;;;;;;22.23;19.80;;;1.30;99.90;;;;;;6131782;23;20532;-81
2023/03/01 08:32:44;;;;;;;20.25;18.10;;;1.40;99.90;;;;;;6132190;23;20021;-80
2023/03/01 08:35:12;;;;;;;23.20;19.17;;;1.40;99.90;;;;;;6131633;23;20473;-80
2023/03/01 08:37:40;;;;;;;25.05;20.15;;;1.90;99.90;;;;;;6131572;23;20357;-81
2023/03/01 08:40:09;;;;;;;28.95;21.25;;;1.60;99.90;;;;;;6132181;23;20013;-80
2023/03/01 08:42:43;;;;;;;29.00;22.08;;;1.70;99.90;;;;;;6131839;23;20013;-80
2023/03/01 08:45:10;;;;;;;30.73;24.00;;;2.60;99.90;;;;;;6155988;23;20013;-80
2023/03/01 08:47:38;;;;;;;29.10;22.95;;;1.90;99.90;;;;;;6131447;23;20581;-80
2023/03/01 08:50:08;;;;;;;32.10;26.38;;;2.00;99.90;;;;;;6131674;23;20021;-80
2023/03/01 08:52:44;;;;;;;38.78;30.13;;;2.00;99.90;;;;;;6158721;23;20028;-80
2023/03/01 08:55:09;;;;;;;45.47;31.40;;;1.40;99.90;;;;;;6132287;23;20402;-80
2023/03/01 08:57:38;;;;;;;41.40;30.63;;;2.50;99.90;;;;;;6131342;23;20013;-80
2023/03/01 09:00:08;;;;;;;39.72;30.77;;;3.10;99.90;;;;;;6132167;23;20013;-80
2023/03/01 09:02:34;;;;;;;40.72;29.70;;;2.50;99.90;;;;;;6131075;23;20358;-80
2023/03/01 09:05:00;;;;;;;35.53;29.08;;;2.60;99.90;;;;;;6131064;23;20025;-80
2023/03/01 09:07:28;;;;;;;34.50;27.00;;;2.70;99.90;;;;;;6132487;23;20353;-80
2023/03/01 09:09:55;;;;;;;35.33;27.73;;;2.80;99.90;;;;;;6131677;23;20017;-80
2023/03/01 09:12:21;;;;;;;34.38;26.95;;;3.80;99.90;;;;;;6133674;23;20079;-80
2023/03/01 09:14:47;;;;;;;31.25;27.25;;;3.30;99.90;;;;;;6136829;23;20017;-80
2023/03/01 09:17:15;;;;;;;32.40;26.58;;;3.30;99.90;;;;;;6133741;23;20609;-80
2023/03/01 09:19:46;;;;;;;33.40;26.38;;;3.90;99.90;;;;;;6133881;23;20052;-80
2023/03/01 09:22:13;;;;;;;35.38;26.23;;;3.40;99.90;;;;;;6133802;23;20027;-81
2023/03/01 09:24:45;;;;;;;35.90;28.05;;;3.70;99.90;;;;;;6158227;23;20016;-80
2023/03/01 09:27:13;;;;;;;32.22;27.33;;;3.70;99.90;;;;;;6133980;23;20073;-81
2023/03/01 09:29:44;;;;;;;32.70;25.60;;;3.70;99.90;;;;;;6133366;23;20017;-80
2023/03/01 09:35:04;;;;;;;33.15;25.70;;;4.10;99.90;;;;;;6158204;23;20021;-81
2023/03/01 09:37:34;;;;;;;30.65;25.27;;;3.90;99.90;;;;;;6131872;23;20413;-82
2023/03/01 09:40:00;;;;;;;28.70;23.77;;;3.90;99.90;;;;;;6133503;23;20051;-80
2023/03/01 09:42:31;;;;;;;31.30;25.35;;;4.80;99.90;;;;;;6132361;23;20025;-81
2023/03/01 09:45:48;;;;;;;27.85;23.23;;;4.10;99.90;;;;;;6133544;23;20100;-80
2023/03/01 09:48:36;;;;;;;;;;;;;;;;;;;;;
2023/03/01 09:51:11;;;;;;;29.70;25.45;;;4.50;99.90;;;;;;6158076;23;20017;-81
2023/03/01 09:53:45;;;;;;;30.70;24.17;;;4.30;99.90;;;;;;6134890;23;20035;-81
2023/03/01 09:57:02;;;;;;;31.48;24.30;;;4.70;99.90;;;;;;6158769;23;20013;-80
2023/03/01 10:00:21;;;;;;;24.02;20.30;;;3.80;99.90;;;;;;6158475;23;20052;-81
2023/03/01 10:03:22;;;;;;;28.08;21.73;;;5.50;99.90;;;;;;6150943;23;20025;-81
2023/03/01 10:06:29;;;;;;;23.67;20.38;;;4.90;99.90;;;;;;6133635;23;20017;-81
2023/03/01 10:09:32;;;;;;;;;;;5.00;99.90;;;;;;6135703;23;20092;-81
2023/03/01 10:12:23;;;;;;;23.17;17.17;;;6.00;99.90;;;;;;6134633;23;19927;-80
2023/03/01 10:15:20;;;;;;;20.35;15.95;;;5.20;99.90;;;;;;6133655;23;20020;-80
2023/03/01 10:18:20;;;;;;;20.10;17.08;;;5.30;99.90;;;;;;6134111;23;20048;-80
2023/03/01 10:21:22;;;;;;;19.65;15.95;;;5.30;99.90;;;;;;6158820;23;20013;-80
2023/03/01 10:24:22;;;;;;;19.55;15.55;;;5.30;99.90;;;;;;6131613;23;20013;-80
2023/03/01 10:27:24;;;;;;;15.50;13.88;;;4.80;99.90;;;;;;6135638;23;20013;-81
2023/03/01 10:30:24;;;;;;;15.88;12.93;;;5.40;99.90;;;;;;6135380;23;20449;-80
2023/03/01 10:33:28;;;;;;;16.90;12.48;;;5.50;99.90;;;;;;6162618;23;20044;-80
2023/03/01 10:36:23;;;;;;;16.77;13.00;;;5.60;99.90;;;;;;6135656;23;20017;-81
2023/03/01 10:39:07;;;;;;;;;;;;;;;;;;;;;
2023/03/01 10:41:55;;;;;;;19.07;13.27;;;5.70;99.90;;;;;;6159072;23;20888;-81
2023/03/01 10:44:50;;;;;;;13.35;11.20;;;6.50;99.90;;;;;;6134232;23;20244;-80
2023/03/01 10:47:28;;;;;;;14.90;11.27;;;6.70;99.90;;;;;;6134056;23;20047;-81
2023/03/01 10:49:59;;;;;;;13.82;11.05;;;6.90;99.90;;;;;;6134284;23;20067;-81
2023/03/01 10:52:35;;;;;;;13.05;11.07;;;6.70;99.90;;;;;;6133912;23;20024;-81
2023/03/01 10:55:33;;;;;;;13.38;11.30;;;6.70;99.90;;;;;;6133726;23;20450;-81
2023/03/01 10:58:20;;;;;;;13.52;10.80;;;6.80;99.90;;;;;;6133918;23;20020;-81
2023/03/01 11:00:46;;;;;;;16.50;12.77;;;6.90;99.90;;;;;;6132614;23;20024;-80
2023/03/01 11:03:16;;;;;;;13.77;11.85;;;6.90;99.90;;;;;;6133090;23;20017;-81
2023/03/01 11:06:11;;;;;;;16.23;12.40;;;7.40;99.90;;;;;;6133745;23;20086;-81
2023/03/01 11:08:49;;;;;;;13.13;11.35;;;7.00;99.90;;;;;;6134478;23;20024;-81
2023/03/01 11:11:21;;;;;;;14.27;10.85;;;7.60;99.90;;;;;;6133623;23;20014;-81
2023/03/01 11:13:57;;;;;;;13.60;11.80;;;6.90;99.90;;;;;;6133442;23;20024;-81
2023/03/01 11:16:26;;;;;;;14.45;11.77;;;7.00;99.90;;;;;;6133849;23;20045;-81
2023/03/01 11:19:03;;;;;;;14.30;11.40;;;7.80;99.90;;;;;;6133851;23;20024;-81
2023/03/01 11:21:37;;;;;;;14.25;11.48;;;6.90;99.90;;;;;;6133611;23;20071;-81
2023/03/01 11:24:06;;;;;;;15.93;12.68;;;7.10;99.90;;;;;;6132203;23;20457;-81
2023/03/01 11:26:44;;;;;;;14.07;10.10;;;7.00;99.90;;;;;;6134761;23;20013;-81
2023/03/01 11:29:27;;;;;;;13.85;11.30;;;6.40;99.90;;;;;;6133174;23;20013;-81
2023/03/01 11:32:00;;;;;;;13.75;11.15;;;7.10;99.90;;;;;;6133069;23;20044;-81
2023/03/01 11:35:02;;;;;;;13.02;9.90;;;7.20;99.90;;;;;;6136002;23;20023;-81
2023/03/01 11:37:41;;;;;;;10.82;9.48;;;7.20;99.90;;;;;;6121075;23;20040;-81
2023/03/01 11:40:21;;;;;;;15.32;9.48;;;7.50;99.90;;;;;;6133006;23;20341;-81
2023/03/01 11:43:02;;;;;;;12.63;7.28;;;7.20;99.90;;;;;;6133518;23;20394;-81
2023/03/01 11:46:07;;;;;;;10.60;7.93;;;7.10;99.90;;;;;;6132995;23;20027;-80
2023/03/01 11:49:00;;;;;;;14.02;9.35;;;7.10;99.90;;;;;;6040285;23;20033;-81
2023/03/01 11:52:04;;;;;;;10.20;8.80;;;7.20;99.90;;;;;;6130170;23;20024;-81
2023/03/01 11:54:58;;;;;;;7.95;6.03;;;7.20;99.90;;;;;;6132836;23;20021;-82
2023/03/01 11:57:53;;;;;;;10.48;6.97;;;7.10;99.90;;;;;;6083186;23;20048;-81
2023/03/01 12:00:40;;;;;;;9.27;7.20;;;7.20;99.90;;;;;;6133178;23;20043;-81
2023/03/01 12:03:33;;;;;;;10.60;8.88;;;7.10;99.90;;;;;;6133015;23;20017;-81
2023/03/01 12:06:31;;;;;;;16.55;11.95;;;7.20;99.90;;;;;;6133252;23;20075;-81
2023/03/01 12:09:00;;;;;;;11.13;9.23;;;7.40;99.90;;;;;;6133016;23;20024;-81
2023/03/01 12:11:37;;;;;;;14.73;10.63;;;7.60;99.90;;;;;;6132938;23;20055;-81
2023/03/01 12:14:36;;;;;;;9.65;8.50;;;7.30;99.90;;;;;;6133368;23;20398;-81
2023/03/01 12:17:41;;;;;;;11.57;10.38;;;7.30;99.90;;;;;;6132546;23;20061;-81
2023/03/01 12:20:21;;;;;;;15.77;13.60;;;7.50;99.90;;;;;;6156929;23;20044;-81
2023/03/01 12:23:17;;;;;;;13.38;11.98;;;7.40;99.90;;;;;;6133657;23;20065;-81
2023/03/01 12:25:53;;;;;;;16.52;13.40;;;7.50;99.90;;;;;;6157451;23;20017;-81
2023/03/01 12:28:43;;;;;;;12.35;11.05;;;7.70;99.90;;;;;;6132231;23;20493;-82
2023/03/01 12:31:28;;;;;;;14.63;11.85;;;7.20;99.90;;;;;;6131847;23;20024;-82
2023/03/01 12:34:33;;;;;;;13.68;12.10;;;7.50;99.90;;;;;;6132029;23;20021;-81
2023/03/01 12:37:24;;;;;;;14.25;11.82;;;6.80;99.90;;;;;;6156616;23;20115;-82
2023/03/01 12:40:17;;;;;;;13.00;10.70;;;7.60;99.90;;;;;;6156487;23;20016;-81
2023/03/01 12:43:39;;;;;;;11.93;10.45;;;7.50;99.90;;;;;;6132974;23;20028;-81
2023/03/01 12:46:39;;;;;;;11.32;10.13;;;7.30;99.90;;;;;;6069600;23;20368;-81
2023/03/01 12:49:54;;;;;;;13.77;11.85;;;7.40;99.90;;;;;;6154285;23;20150;-81
2023/03/01 12:53:05;;;;;;;14.13;11.20;;;7.80;99.90;;;;;;6104408;23;20425;-81
2023/03/01 12:55:43;;;;;;;13.82;10.80;;;7.70;99.90;;;;;;6159273;23;20040;-81
2023/03/01 12:58:30;;;;;;;13.77;11.25;;;7.70;99.90;;;;;;6133289;23;20541;-81
2023/03/01 13:01:34;;;;;;;13.00;10.88;;;7.20;99.90;;;;;;6158005;23;20009;-81
2023/03/01 13:04:36;;;;;;;12.20;10.87;;;7.30;99.90;;;;;;6133987;23;20021;-82
2023/03/01 13:07:08;;;;;;;13.30;11.00;;;7.50;99.90;;;;;;6132764;23;20071;-82
2023/03/01 13:10:04;;;;;;;12.23;11.00;;;7.60;99.90;;;;;;6133163;23;20350;-81
2023/03/01 13:12:42;;;;;;;14.33;11.17;;;7.50;99.90;;;;;;6133929;23;20122;-81
2023/03/01 13:15:32;;;;;;;17.98;12.73;;;8.10;99.90;;;;;;6133760;23;20020;-82
2023/03/01 13:18:27;;;;;;;15.00;12.02;;;7.50;99.90;;;;;;6134043;23;20043;-81
2023/03/01 13:21:01;;;;;;;13.20;11.80;;;6.90;99.90;;;;;;6134450;23;20017;-81
2023/03/01 13:23:33;;;;;;;15.65;12.63;;;6.70;99.90;;;;;;6133841;23;20017;-81
2023/03/01 13:26:03;;;;;;;14.95;13.10;;;7.60;99.90;;;;;;6133668;23;20016;-82
2023/03/01 13:28:46;;;;;;;15.23;12.13;;;8.10;99.90;;;;;;6133912;23;20156;-82
2023/03/01 13:31:28;;;;;;;12.68;11.38;;;7.50;99.90;;;;;;6161057;23;20023;-82
2023/03/01 13:34:32;;;;;;;15.82;12.68;;;7.50;99.90;;;;;;6133672;23;20017;-81
2023/03/01 13:37:30;;;;;;;15.32;11.95;;;7.60;99.90;;;;;;6156789;23;20048;-82
2023/03/01 13:39:58;;;;;;;18.05;13.68;;;7.50;99.90;;;;;;6129790;23;20100;-82
2023/03/01 13:42:51;;;;;;;13.55;10.95;;;7.50;99.90;;;;;;6133075;23;20013;-82
2023/03/01 13:45:41;;;;;;;13.57;10.50;;;7.60;99.90;;;;;;6134149;23;20035;-81
2023/03/01 13:48:18;;;;;;;15.52;12.95;;;7.50;99.90;;;;;;6133425;23;20017;-82
2023/03/01 13:51:02;;;;;;;14.88;12.30;;;7.50;99.90;;;;;;6133848;23;20025;-82
2023/03/01 13:53:33;;;;;;;15.13;13.35;;;7.60;99.90;;;;;;6134158;23;20039;-82
2023/03/01 13:56:12;;;;;;;18.58;13.50;;;7.70;99.90;;;;;;6133497;23;20017;-81
2023/03/01 13:58:58;;;;;;;13.95;12.40;;;7.50;99.90;;;;;;6159238;23;20013;-81
2023/03/01 14:01:28;;;;;;;;;;;7.40;99.90;;;;;;6136760;23;20017;-81
2023/03/01 14:03:55;;;;;;;16.02;12.85;;;6.70;99.90;;;;;;6208018;23;19916;-82
2023/03/01 14:06:35;;;;;;;15.82;13.05;;;7.40;99.90;;;;;;6134033;23;20021;-81
2023/03/01 14:09:27;;;;;;;16.50;13.27;;;7.50;99.90;;;;;;6133297;23;20143;-82
2023/03/01 14:12:29;;;;;;;19.48;14.00;;;7.70;99.90;;;;;;6133610;23;20017;-82
2023/03/01 14:15:08;;;;;;;15.55;13.90;;;7.50;99.90;;;;;;6132918;23;20088;-82
2023/03/01 14:18:11;;;;;;;14.15;11.88;;;7.50;99.90;;;;;;6131612;23;20450;-81
2023/03/01 14:20:50;;;;;;;16.45;12.73;;;7.60;99.90;;;;;;6133314;23;20552;-82
2023/03/01 14:23:42;;;;;;;;;;;;;;;;;;;;;
2023/03/01 14:26:11;;;;;;;8.68;7.40;;;7.70;99.90;;;;;;6157182;23;20013;-81
2023/03/01 14:28:43;;;;;;;8.57;7.55;;;7.70;99.90;;;;;;6132983;23;20021;-82
2023/03/01 14:31:38;;;;;;;10.57;9.25;;;7.50;99.90;;;;;;6133239;23;20351;-81
2023/03/01 14:34:05;;;;;;;10.63;9.25;;;7.50;99.90;;;;;;6133257;23;20105;-82
2023/03/01 14:36:34;;;;;;;14.20;9.82;;;7.90;99.90;;;;;;6133190;23;20013;-81
2023/03/01 14:39:04;;;;;;;9.43;8.48;;;7.50;99.90;;;;;;6132404;23;20104;-82
2023/03/01 14:41:34;;;;;;;8.93;7.63;;;7.90;99.90;;;;;;6157831;23;20021;-82
2023/03/01 14:44:19;;;;;;;8.90;8.00;;;7.60;99.90;;;;;;6133248;23;20549;-82